Llano, TX (78643)

6:14 PM CST on November 21, 2014 (GMT -0600)
Indian Hills | Change Station
CLOSE
Current Station
Personal Weather Station
Location: Buchanan Dam, TX
Elevation: 1060 ft
Nearby Weather Stations

Elev 1060 ft 30.74 °N, 98.45 °W | Updated 14 seconds ago

Partly Cloudy
Partly Cloudy
70.2 °F
Feels Like 71 °F
N
4.9
Wind Variable Wind from ESE
Gusts 7.4 mph

Today
High -- | Low -- °F
--% Chance of Precip.
Yesterday
High -- | Low -- °F
Precip. -- in
7:05 AM 5:34 PM
Waning Crescent, 0% visible
Pressure 30.03 in
Visibility 10.0 miles
Clouds Scattered Clouds 4100 ft
Mostly Cloudy 6000 ft
Heat Index 71 °F
Dew Point 64 °F
Humidity 80%
Rainfall 0.00 in
Snow Depth Not available.
UV 0.0 out of 12
Pollen 3.20 out of 12
Air Quality Not available.
Flu Activity Not available.
METAR KAQO 212355Z AUTO 16003KT 10SM SCT041 BKN060 22/16 A3003 RMK AO2 LTG DSNT SE

More Conditions Fewer Conditions

Pressure 30.03 in
Visibility 10.0 miles
Clouds Scattered Clouds 4100 ft
Mostly Cloudy 6000 ft
Heat Index 71 °F
Dew Point 64 °F
Humidity 80%
Rainfall 0.00 in
Snow Depth Not available.
UV 0.0 out of 12
Pollen 3.20 out of 12
Air Quality Not available.
Flu Activity Not available.
METAR KAQO 212355Z AUTO 16003KT 10SM SCT041 BKN060 22/16 A3003 RMK AO2 LTG DSNT SE

More Conditions Fewer Conditions

Nowcast | as of 3:54 PM CST on November 21, 2014

Through 8 PM CST...isolated light rain showers and patchy drizzle will produce rainfall amounts mainly between a trace and 1/10 inch. After 8 PM...scattered to numerous showers and thunderstorms are expected to develop over parts of The Hill Country...Edwards Plateau... and Rio Grande plains. Locally heavy rainfall of 1 to 2 inches...small hail...and gusty winds will be possible from the stronger storms.

×

10-Day Weather Forecast

Almanac

Astronomy

Nov. 21, 2014 Rise Set
Actual Time
Civil Twilight
Nautical Twilight
Astronomical Twilight
Moon
Length of Visible Light
Length of Day
Tomorrow will be .
, % of the Moon is Illuminated

Today's Extremes

State Highs State Lows

Community

WunderPhotos

Upload Photos

1,772,744 photos uploaded!

WunderBlogs® & News

Nearby

Air Quality

  Air Quality AQ Index Pollutant
Not available.

Snow Depth

Station Depth Elevation

Earthquake Activity

City Distance Mag. Time & Date
Minimum magnitude displayed is 2.5.

Coastal Water Temperatures

Place Temperature

Nearby Weather Stations